Time;durP1;ratioP1;P1;durP2;ratioP2;P2;SDS_P1;SDS_P2;PMS_P1;PMS_P2;Temp;Humidity;BMP_temperature;BMP_pressure;BME280_temperature;BME280_humidity;BME280_pressure;Samples;Min_cycle;Max_cycle;Signal;HPM_P1;HPM_P2
2021/01/11 00:01:25;;;;;;;20.15;13.23;;;6.70;99.90;;;;;;4975023;28;20679;-85
2021/01/11 00:03:51;;;;;;;17.33;13.23;;;6.50;99.90;;;;;;4975305;28;20204;-84
2021/01/11 00:06:18;;;;;;;16.63;12.85;;;6.50;99.90;;;;;;4974775;28;20207;-86
2021/01/11 00:08:45;;;;;;;19.23;13.70;;;6.50;99.90;;;;;;4974591;28;20206;-85
2021/01/11 00:11:12;;;;;;;21.67;12.68;;;6.60;99.90;;;;;;4975062;28;20229;-85
2021/01/11 00:13:38;;;;;;;22.20;12.98;;;6.60;99.90;;;;;;4974512;28;20232;-85
2021/01/11 00:16:05;;;;;;;15.00;12.20;;;6.50;99.90;;;;;;4974869;28;20205;-85
2021/01/11 00:18:32;;;;;;;18.73;13.50;;;6.50;99.90;;;;;;4974684;28;20259;-86
2021/01/11 00:20:58;;;;;;;23.70;13.00;;;6.70;99.90;;;;;;4974911;28;20205;-85
2021/01/11 00:23:24;;;;;;;18.05;13.55;;;6.60;99.90;;;;;;4974941;28;20201;-86
2021/01/11 00:25:51;;;;;;;17.45;12.13;;;6.60;99.90;;;;;;4974847;28;20197;-85
2021/01/11 00:28:17;;;;;;;19.88;13.82;;;6.70;99.90;;;;;;4974902;28;20197;-86
2021/01/11 00:30:44;;;;;;;22.85;14.55;;;6.70;99.90;;;;;;4974672;28;20226;-85
2021/01/11 00:33:10;;;;;;;18.17;13.27;;;6.70;99.90;;;;;;4974780;28;20198;-85
2021/01/11 00:35:37;;;;;;;21.17;13.48;;;6.70;99.90;;;;;;4974430;28;20202;-86
2021/01/11 00:38:03;;;;;;;19.55;12.88;;;6.70;99.90;;;;;;4974816;28;20264;-86
2021/01/11 00:40:30;;;;;;;16.48;13.60;;;6.70;99.90;;;;;;4974592;28;20208;-86
2021/01/11 00:42:56;;;;;;;15.38;12.50;;;6.50;99.90;;;;;;4974678;28;20710;-85
2021/01/11 00:45:22;;;;;;;17.70;13.43;;;6.50;99.90;;;;;;4974688;28;20265;-85
2021/01/11 00:47:48;;;;;;;21.42;13.68;;;6.60;99.90;;;;;;4974572;28;20204;-86
2021/01/11 00:50:15;;;;;;;20.08;13.95;;;6.70;99.90;;;;;;4974425;28;20228;-86
2021/01/11 00:52:42;;;;;;;20.00;13.65;;;6.70;99.90;;;;;;4974644;28;20268;-85
2021/01/11 00:55:09;;;;;;;17.05;13.38;;;6.70;99.90;;;;;;4975167;28;20198;-86
2021/01/11 00:57:36;;;;;;;17.90;13.38;;;6.70;99.90;;;;;;4978019;28;20201;-85
2021/01/11 01:00:03;;;;;;;18.20;12.50;;;6.70;99.90;;;;;;4978101;28;20202;-85
2021/01/11 01:02:30;;;;;;;17.27;13.00;;;6.60;99.90;;;;;;4977941;28;20205;-85
2021/01/11 01:04:56;;;;;;;19.83;13.85;;;6.60;99.90;;;;;;4978132;28;20194;-85
2021/01/11 01:07:22;;;;;;;15.30;12.20;;;6.60;99.90;;;;;;4978116;28;20198;-86
2021/01/11 01:09:49;;;;;;;16.38;14.02;;;6.70;99.90;;;;;;4978078;28;20221;-85
2021/01/11 01:12:15;;;;;;;22.40;14.40;;;6.70;99.90;;;;;;4977932;28;20221;-85
2021/01/11 01:14:42;;;;;;;17.60;13.52;;;6.70;99.90;;;;;;4978009;28;20228;-85
2021/01/11 01:17:08;;;;;;;17.90;12.25;;;6.60;99.90;;;;;;4977764;28;20209;-85
2021/01/11 01:19:34;;;;;;;19.83;14.20;;;6.50;99.90;;;;;;4977817;28;20223;-85
2021/01/11 01:22:01;;;;;;;20.98;14.30;;;6.40;99.90;;;;;;4977748;28;20197;-85
2021/01/11 01:24:27;;;;;;;17.95;13.65;;;6.40;99.90;;;;;;4977657;28;20561;-86
2021/01/11 01:26:54;;;;;;;21.73;13.90;;;6.60;99.90;;;;;;4977573;28;20197;-86
2021/01/11 01:29:20;;;;;;;18.17;12.73;;;6.60;99.90;;;;;;4977428;28;20224;-85
2021/01/11 01:31:47;;;;;;;19.77;13.90;;;6.40;99.90;;;;;;4977401;28;20204;-85
2021/01/11 01:34:13;;;;;;;21.13;14.98;;;6.50;99.90;;;;;;4977795;28;20202;-85
2021/01/11 01:36:39;;;;;;;27.55;14.85;;;6.40;99.90;;;;;;4977125;28;20251;-85
2021/01/11 01:39:06;;;;;;;24.25;13.80;;;6.40;99.90;;;;;;4977772;28;20209;-85
2021/01/11 01:41:32;;;;;;;20.55;13.60;;;6.40;99.90;;;;;;4977492;28;20688;-85
2021/01/11 01:43:59;;;;;;;19.55;13.13;;;6.50;99.90;;;;;;4977475;28;20244;-85
2021/01/11 01:46:30;;;;;;;25.25;14.45;;;6.70;99.90;;;;;;4977005;28;20236;-85
2021/01/11 01:48:57;;;;;;;20.75;13.75;;;6.70;99.90;;;;;;4977375;28;20544;-85
2021/01/11 01:51:24;;;;;;;22.13;15.20;;;6.50;99.90;;;;;;4977222;28;20205;-86
2021/01/11 01:53:50;;;;;;;24.77;14.35;;;6.60;99.90;;;;;;4977004;28;20210;-84
2021/01/11 01:56:17;;;;;;;19.05;14.25;;;6.50;99.90;;;;;;4977233;28;20201;-85
2021/01/11 01:58:45;;;;;;;19.58;14.90;;;6.50;99.90;;;;;;4977188;28;20212;-85
2021/01/11 02:01:12;;;;;;;18.92;13.20;;;6.50;99.90;;;;;;4977052;28;20202;-85
2021/01/11 02:03:38;;;;;;;18.17;15.77;;;6.40;99.90;;;;;;4977131;28;20205;-85
2021/01/11 02:06:05;;;;;;;24.98;16.23;;;6.50;99.90;;;;;;4976969;28;20198;-85
2021/01/11 02:08:44;;;;;;;17.70;13.68;;;6.50;99.90;;;;;;4976918;28;20205;-85
2021/01/11 02:11:16;;;;;;;21.10;14.85;;;6.60;99.90;;;;;;4977023;28;20201;-85
2021/01/11 02:13:56;;;;;;;19.98;14.23;;;6.60;99.90;;;;;;4976712;28;20273;-85
2021/01/11 02:16:34;;;;;;;18.55;14.20;;;6.70;99.90;;;;;;4976777;28;20229;-85
2021/01/11 02:19:11;;;;;;;21.30;15.48;;;6.60;99.90;;;;;;4976898;28;20201;-85
2021/01/11 02:22:06;;;;;;;26.10;14.52;;;6.60;99.90;;;;;;4976860;28;20197;-85
2021/01/11 02:25:06;;;;;;;20.52;13.30;;;6.60;99.90;;;;;;4976799;28;20206;-85
2021/01/11 02:27:41;;;;;;;21.88;15.45;;;6.50;99.90;;;;;;4976567;28;20662;-86
2021/01/11 02:30:16;;;;;;;21.40;14.38;;;6.50;99.90;;;;;;4976506;28;20225;-85
2021/01/11 02:32:46;;;;;;;22.05;13.77;;;6.60;99.90;;;;;;4976709;28;20186;-86
2021/01/11 02:35:14;;;;;;;25.58;15.10;;;6.40;99.90;;;;;;4976399;28;20292;-85
2021/01/11 02:37:41;;;;;;;22.88;15.52;;;6.30;99.90;;;;;;4976339;28;20201;-85
2021/01/11 02:40:09;;;;;;;23.27;15.90;;;6.30;99.90;;;;;;4976656;28;20197;-85
2021/01/11 02:42:36;;;;;;;20.98;15.38;;;6.30;99.90;;;;;;4976410;28;20666;-85
2021/01/11 02:45:04;;;;;;;26.23;15.70;;;6.10;99.90;;;;;;4975881;28;20222;-85
2021/01/11 02:47:42;;;;;;;22.13;15.50;;;6.20;99.90;;;;;;4976165;28;20602;-85
2021/01/11 02:50:10;;;;;;;25.23;15.60;;;6.20;99.90;;;;;;4976076;28;20591;-85
2021/01/11 02:52:42;;;;;;;22.30;15.45;;;6.20;99.90;;;;;;4975845;28;20205;-86
2021/01/11 02:55:18;;;;;;;24.73;16.70;;;6.20;99.90;;;;;;4976228;28;20201;-85
2021/01/11 02:57:51;;;;;;;26.60;16.23;;;6.20;99.90;;;;;;4975991;28;20204;-85
2021/01/11 03:00:19;;;;;;;22.88;16.63;;;6.30;99.90;;;;;;4975848;28;20224;-85
2021/01/11 03:02:49;;;;;;;21.67;16.08;;;6.20;99.90;;;;;;4976021;28;20200;-85
2021/01/11 03:05:17;;;;;;;22.60;15.88;;;6.20;99.90;;;;;;4976047;28;20247;-85
2021/01/11 03:07:54;;;;;;;23.33;17.00;;;6.20;99.90;;;;;;4975955;28;20194;-85
2021/01/11 03:10:21;;;;;;;21.52;15.40;;;6.20;99.90;;;;;;4975612;28;20213;-85
2021/01/11 03:12:47;;;;;;;27.98;17.50;;;6.20;99.90;;;;;;4975774;28;20213;-85
2021/01/11 03:15:15;;;;;;;24.27;17.23;;;6.30;99.90;;;;;;4975748;28;20197;-85
2021/01/11 03:17:41;;;;;;;26.95;16.77;;;6.40;99.90;;;;;;4975210;28;20198;-85
2021/01/11 03:20:10;;;;;;;27.52;18.30;;;6.40;99.90;;;;;;4975570;28;20659;-85
2021/01/11 03:22:36;;;;;;;24.80;17.63;;;6.30;99.90;;;;;;4975482;28;20595;-85
2021/01/11 03:25:03;;;;;;;23.80;17.92;;;6.10;99.90;;;;;;4975463;28;20229;-85
2021/01/11 03:27:29;;;;;;;27.38;17.00;;;6.20;99.90;;;;;;4975769;28;20212;-85
2021/01/11 03:29:56;;;;;;;23.67;17.42;;;6.30;99.90;;;;;;4975369;28;20240;-85
2021/01/11 03:32:22;;;;;;;24.00;17.02;;;6.30;99.90;;;;;;4975355;28;20197;-85
2021/01/11 03:34:49;;;;;;;25.55;18.95;;;6.20;99.90;;;;;;4975406;28;20213;-86
2021/01/11 03:37:16;;;;;;;24.90;17.70;;;6.20;99.90;;;;;;4975187;28;20201;-85
2021/01/11 03:39:43;;;;;;;26.70;18.90;;;6.20;99.90;;;;;;4975273;28;20204;-85
2021/01/11 03:42:09;;;;;;;27.48;17.98;;;6.20;99.90;;;;;;4975071;28;20218;-85
2021/01/11 03:44:36;;;;;;;24.60;17.67;;;6.10;99.90;;;;;;4975052;28;20205;-85
2021/01/11 03:47:02;;;;;;;25.48;18.48;;;5.90;99.90;;;;;;4975619;28;20193;-85
2021/01/11 03:49:28;;;;;;;24.90;17.88;;;6.00;99.90;;;;;;4975159;28;20252;-85
2021/01/11 03:52:00;;;;;;;22.88;17.48;;;6.10;99.90;;;;;;4975207;28;20251;-85
2021/01/11 03:54:28;;;;;;;26.10;17.67;;;6.10;99.90;;;;;;4975461;28;20194;-85
2021/01/11 03:56:54;;;;;;;23.63;17.70;;;6.20;99.90;;;;;;4974872;28;20201;-85
2021/01/11 03:59:20;;;;;;;29.85;18.15;;;6.20;99.90;;;;;;4975149;28;20201;-86
2021/01/11 04:01:47;;;;;;;28.15;17.90;;;6.20;99.90;;;;;;4974900;28;20197;-86
2021/01/11 04:04:13;;;;;;;28.67;18.42;;;6.20;99.90;;;;;;4974927;28;20197;-86
2021/01/11 04:06:39;;;;;;;26.00;17.75;;;6.10;99.90;;;;;;4974980;28;20194;-85
2021/01/11 04:09:05;;;;;;;28.38;19.98;;;6.10;99.90;;;;;;4974944;28;20209;-85
2021/01/11 04:11:33;;;;;;;31.83;18.98;;;6.10;99.90;;;;;;4974859;28;20202;-85
2021/01/11 04:13:59;;;;;;;30.83;20.33;;;6.10;99.90;;;;;;4974756;28;20198;-85
2021/01/11 04:16:25;;;;;;;29.80;20.30;;;5.90;99.90;;;;;;4974573;28;20224;-85
2021/01/11 04:18:52;;;;;;;33.35;19.88;;;6.00;99.90;;;;;;4974764;28;20205;-85
2021/01/11 04:21:18;;;;;;;26.63;19.70;;;6.00;99.90;;;;;;4974560;28;20724;-85
2021/01/11 04:23:45;;;;;;;31.17;21.17;;;6.10;99.90;;;;;;4974669;28;20198;-85
2021/01/11 04:26:11;;;;;;;25.27;18.13;;;6.00;99.90;;;;;;4974698;28;20197;-85
2021/01/11 04:28:38;;;;;;;26.67;19.27;;;5.90;99.90;;;;;;4974627;28;20193;-85
2021/01/11 04:31:05;;;;;;;29.80;19.90;;;6.00;99.90;;;;;;4977329;28;20580;-85
2021/01/11 04:33:32;;;;;;;28.52;20.77;;;6.00;99.90;;;;;;4978875;28;20197;-85
2021/01/11 04:35:58;;;;;;;33.10;20.60;;;6.00;99.90;;;;;;4978709;28;20228;-85
2021/01/11 04:38:24;;;;;;;28.45;20.73;;;5.80;99.90;;;;;;4978682;28;20203;-85
2021/01/11 04:40:50;;;;;;;37.60;22.90;;;5.50;99.90;;;;;;4978658;28;20197;-86
2021/01/11 04:43:18;;;;;;;34.78;21.70;;;5.30;99.90;;;;;;4978281;28;20213;-85
2021/01/11 04:45:46;;;;;;;33.88;22.38;;;5.30;99.90;;;;;;4978222;28;20225;-85
2021/01/11 04:48:13;;;;;;;33.22;21.63;;;5.30;99.90;;;;;;4978584;28;20204;-85
2021/01/11 04:50:41;;;;;;;39.60;24.00;;;5.40;99.90;;;;;;4978291;28;20225;-85
2021/01/11 04:53:08;;;;;;;34.80;23.73;;;5.60;99.90;;;;;;4978179;28;20614;-85
2021/01/11 04:55:36;;;;;;;32.55;21.73;;;5.70;99.90;;;;;;4978117;28;20568;-85
2021/01/11 04:58:08;;;;;;;35.95;23.98;;;5.80;99.90;;;;;;4978145;28;20193;-85
2021/01/11 05:00:34;;;;;;;33.53;22.25;;;6.00;99.90;;;;;;4978314;28;20190;-85
2021/01/11 05:03:03;;;;;;;33.50;22.60;;;5.70;99.90;;;;;;4977878;28;20256;-85
2021/01/11 05:05:31;;;;;;;36.30;22.52;;;5.70;99.90;;;;;;4977918;28;20291;-85
2021/01/11 05:07:58;;;;;;;27.20;20.55;;;5.70;99.90;;;;;;4978089;28;20197;-85
2021/01/11 05:10:26;;;;;;;30.42;22.33;;;5.60;99.90;;;;;;4977882;28;20229;-85
2021/01/11 05:12:54;;;;;;;29.63;21.83;;;5.40;99.90;;;;;;4977792;28;20280;-85
2021/01/11 05:15:22;;;;;;;30.83;20.83;;;5.40;99.90;;;;;;4961149;28;20223;-85
2021/01/11 05:17:48;;;;;;;30.55;21.60;;;5.40;99.90;;;;;;4977651;28;20208;-85
2021/01/11 05:20:19;;;;;;;30.67;21.00;;;5.50;99.90;;;;;;4977858;28;20197;-85
2021/01/11 05:22:47;;;;;;;27.60;21.65;;;5.60;99.90;;;;;;4977762;28;20561;-85
2021/01/11 05:25:14;;;;;;;30.75;21.20;;;5.60;99.90;;;;;;4977679;28;20578;-85
2021/01/11 05:27:41;;;;;;;31.10;21.85;;;5.70;99.90;;;;;;4977519;28;20205;-85
2021/01/11 05:30:10;;;;;;;28.23;20.92;;;5.80;99.90;;;;;;4977577;28;20320;-85
2021/01/11 05:32:37;;;;;;;31.80;22.40;;;5.80;99.90;;;;;;4977564;28;20198;-85
2021/01/11 05:35:04;;;;;;;29.17;21.17;;;5.80;99.90;;;;;;4977487;28;20208;-85
2021/01/11 05:37:33;;;;;;;33.30;22.58;;;5.90;99.90;;;;;;4977440;28;20256;-85
2021/01/11 05:40:08;;;;;;;32.88;21.75;;;5.90;99.90;;;;;;4977555;28;20198;-85
2021/01/11 05:42:35;;;;;;;27.67;20.73;;;5.80;99.90;;;;;;4976925;28;20223;-85
2021/01/11 05:45:12;;;;;;;29.77;20.55;;;5.70;99.90;;;;;;4976973;28;20221;-86
2021/01/11 05:47:55;;;;;;;28.13;20.27;;;5.70;99.90;;;;;;4977581;28;20194;-85
2021/01/11 05:50:22;;;;;;;25.52;19.73;;;5.80;99.90;;;;;;4977458;28;20229;-85
2021/01/11 05:52:49;;;;;;;31.00;21.40;;;5.80;99.90;;;;;;4977212;28;20208;-85
2021/01/11 05:55:23;;;;;;;33.33;21.92;;;5.80;99.90;;;;;;4977321;28;20649;-86
2021/01/11 05:57:57;;;;;;;28.02;18.88;;;5.90;99.90;;;;;;4977519;28;20198;-85
2021/01/11 06:00:25;;;;;;;30.17;19.42;;;5.60;99.90;;;;;;4977072;28;20216;-85
2021/01/11 06:02:52;;;;;;;24.60;19.35;;;5.70;99.90;;;;;;4977135;28;20202;-85
2021/01/11 06:05:19;;;;;;;33.88;20.90;;;5.50;99.90;;;;;;4977415;28;20208;-85
2021/01/11 06:07:46;;;;;;;27.13;20.15;;;5.60;99.90;;;;;;4977060;28;20198;-85
2021/01/11 06:10:15;;;;;;;27.05;18.40;;;5.60;99.90;;;;;;4977156;28;20696;-85
2021/01/11 06:12:42;;;;;;;27.85;19.35;;;5.50;99.90;;;;;;4976567;28;20217;-85
2021/01/11 06:15:11;;;;;;;27.40;17.75;;;5.50;99.90;;;;;;4976698;28;20201;-85
2021/01/11 06:17:39;;;;;;;24.38;18.42;;;5.50;99.90;;;;;;4976622;28;20673;-85
2021/01/11 06:20:07;;;;;;;27.60;19.65;;;5.60;99.90;;;;;;4976939;28;20197;-86
2021/01/11 06:23:02;;;;;;;28.05;19.58;;;5.60;99.90;;;;;;4976693;28;20202;-85
2021/01/11 06:25:39;;;;;;;22.38;16.50;;;5.80;99.90;;;;;;4976722;28;20252;-86
2021/01/11 06:28:08;;;;;;;26.60;18.63;;;5.80;99.90;;;;;;4976530;28;20683;-85
2021/01/11 06:30:36;;;;;;;26.40;18.15;;;5.70;99.90;;;;;;4976452;28;20226;-85
2021/01/11 06:33:05;;;;;;;27.15;17.33;;;5.70;99.90;;;;;;4976362;28;20687;-85
2021/01/11 06:35:32;;;;;;;24.25;16.58;;;5.70;99.90;;;;;;4976328;28;20197;-85
2021/01/11 06:38:20;;;;;;;28.98;17.63;;;5.80;99.90;;;;;;4976502;28;20205;-85
2021/01/11 06:40:49;;;;;;;26.00;17.83;;;5.80;99.90;;;;;;4976507;28;20615;-86
2021/01/11 06:43:15;;;;;;;24.75;17.00;;;5.70;99.90;;;;;;4976158;28;20285;-85
2021/01/11 06:45:43;;;;;;;24.42;18.08;;;5.50;99.90;;;;;;4975876;28;20282;-85
2021/01/11 06:48:12;;;;;;;25.90;18.75;;;5.50;99.90;;;;;;4976204;28;20198;-85
2021/01/11 06:50:39;;;;;;;40.08;18.60;;;5.50;99.90;;;;;;4976208;28;20308;-85
2021/01/11 06:53:05;;;;;;;28.02;19.75;;;5.40;99.90;;;;;;4975079;28;20224;-85
2021/01/11 06:55:32;;;;;;;29.45;19.10;;;5.50;99.90;;;;;;4976231;28;20193;-85
2021/01/11 06:58:00;;;;;;;26.52;18.10;;;5.70;99.90;;;;;;4976148;28;20204;-85
2021/01/11 07:00:35;;;;;;;26.17;20.02;;;5.70;99.90;;;;;;4975988;28;20252;-85
2021/01/11 07:03:02;;;;;;;26.73;19.40;;;5.90;99.90;;;;;;4976197;28;20201;-85
2021/01/11 07:05:50;;;;;;;33.63;19.52;;;5.90;99.90;;;;;;4975775;28;20573;-85
2021/01/11 07:08:21;;;;;;;25.67;18.23;;;5.80;99.90;;;;;;4975917;28;20201;-85
2021/01/11 07:11:02;;;;;;;27.30;18.52;;;5.80;99.90;;;;;;4975699;28;20272;-85
2021/01/11 07:13:31;;;;;;;29.73;19.02;;;5.80;99.90;;;;;;4975593;28;20599;-85
2021/01/11 07:16:12;;;;;;;25.08;17.45;;;5.80;99.90;;;;;;4975570;28;20719;-85
2021/01/11 07:18:56;;;;;;;23.13;17.55;;;5.70;99.90;;;;;;4975627;28;20229;-85
2021/01/11 07:21:25;;;;;;;23.92;17.92;;;5.80;99.90;;;;;;4975621;28;20645;-85
2021/01/11 07:23:52;;;;;;;26.17;18.83;;;5.70;99.90;;;;;;4975487;28;20202;-85
2021/01/11 07:26:19;;;;;;;28.73;17.63;;;5.80;99.90;;;;;;4975554;28;20201;-85
2021/01/11 07:29:08;;;;;;;30.20;18.35;;;5.90;99.90;;;;;;4975542;28;20198;-86
2021/01/11 07:31:36;;;;;;;27.83;18.10;;;5.90;99.90;;;;;;4969461;28;20221;-85
2021/01/11 07:34:06;;;;;;;23.15;16.10;;;5.90;99.90;;;;;;4975506;28;20221;-86
2021/01/11 07:36:35;;;;;;;31.90;20.40;;;5.90;99.90;;;;;;4976169;28;20189;-85
2021/01/11 07:39:23;;;;;;;22.73;17.63;;;6.00;99.90;;;;;;4983154;28;20201;-86
2021/01/11 07:41:51;;;;;;;23.65;17.45;;;6.10;99.90;;;;;;4983509;28;20218;-85
2021/01/11 07:44:23;;;;;;;29.70;17.00;;;6.00;99.90;;;;;;4980297;28;20196;-85
2021/01/11 07:46:58;;;;;;;23.52;16.42;;;6.00;99.90;;;;;;4983483;28;20307;-86
2021/01/11 07:49:25;;;;;;;24.77;18.10;;;6.00;99.90;;;;;;4986030;28;20200;-86
2021/01/11 07:51:52;;;;;;;24.67;17.70;;;5.90;99.90;;;;;;4983371;28;20244;-86
2021/01/11 07:54:20;;;;;;;26.95;18.00;;;6.00;99.90;;;;;;4975054;28;20198;-85
2021/01/11 07:56:48;;;;;;;30.60;19.20;;;6.00;99.90;;;;;;4974938;28;20209;-85
2021/01/11 07:59:15;;;;;;;20.52;16.40;;;6.00;99.90;;;;;;4975090;28;20194;-85
2021/01/11 08:01:43;;;;;;;27.00;18.35;;;6.00;99.90;;;;;;4974835;28;20611;-86
2021/01/11 08:04:11;;;;;;;31.38;20.30;;;5.90;99.90;;;;;;4974819;28;20198;-86
2021/01/11 08:06:47;;;;;;;23.17;18.60;;;5.80;99.90;;;;;;4974787;28;20198;-84
2021/01/11 08:09:14;;;;;;;23.13;17.27;;;5.70;99.90;;;;;;4974864;28;20200;-87
2021/01/11 08:11:41;;;;;;;27.00;19.50;;;5.80;99.90;;;;;;4974928;28;20229;-86
2021/01/11 08:14:07;;;;;;;25.38;18.52;;;5.90;99.90;;;;;;4975025;28;20198;-85
2021/01/11 08:16:35;;;;;;;24.27;16.30;;;5.70;99.90;;;;;;4974938;28;20201;-86
2021/01/11 08:19:06;;;;;;;26.17;17.80;;;5.80;99.90;;;;;;4974987;28;20255;-88
2021/01/11 08:21:32;;;;;;;29.45;17.60;;;5.70;99.90;;;;;;4974920;28;20209;-85
2021/01/11 08:24:04;;;;;;;23.05;17.20;;;5.60;99.90;;;;;;4974894;28;20202;-87
2021/01/11 08:26:33;;;;;;;22.23;15.30;;;5.70;99.90;;;;;;4974909;28;20204;-86
2021/01/11 08:29:00;;;;;;;25.42;17.52;;;5.90;99.90;;;;;;4974833;28;20264;-86
2021/01/11 08:31:28;;;;;;;32.67;17.70;;;6.00;99.90;;;;;;4974461;28;20221;-86
2021/01/11 08:33:56;;;;;;;23.98;17.25;;;5.70;99.90;;;;;;4974673;28;20204;-87
2021/01/11 08:36:24;;;;;;;24.17;18.40;;;5.50;99.90;;;;;;4974455;28;20208;-87
2021/01/11 08:39:11;;;;;;;23.42;16.80;;;5.70;99.90;;;;;;4974712;28;20205;-86
2021/01/11 08:41:39;;;;;;;22.58;15.45;;;5.80;99.90;;;;;;4974393;28;20221;-86
2021/01/11 08:44:06;;;;;;;18.77;15.13;;;5.90;99.90;;;;;;4974795;28;20205;-85
2021/01/11 08:47:07;;;;;;;22.25;15.65;;;5.90;99.90;;;;;;4974383;28;20233;-86
2021/01/11 08:49:33;;;;;;;21.00;16.05;;;5.70;99.90;;;;;;4981653;28;20205;-84
2021/01/11 08:52:12;;;;;;;21.63;15.77;;;5.60;99.90;;;;;;4989212;28;20535;-84
2021/01/11 08:54:39;;;;;;;20.23;14.95;;;5.60;99.90;;;;;;4984458;28;20654;-84
2021/01/11 08:57:10;;;;;;;20.08;14.88;;;5.80;99.90;;;;;;4979237;28;20548;-84
2021/01/11 08:59:37;;;;;;;23.38;14.90;;;5.80;99.90;;;;;;4984938;28;20186;-85
2021/01/11 09:02:03;;;;;;;20.88;14.93;;;5.80;99.90;;;;;;4985321;28;20244;-84
2021/01/11 09:04:34;;;;;;;15.32;12.60;;;5.80;99.90;;;;;;4984762;28;20195;-84
2021/01/11 09:07:02;;;;;;;24.58;14.23;;;5.70;99.90;;;;;;4974474;28;20641;-84
2021/01/11 09:09:30;;;;;;;22.73;15.30;;;5.60;99.90;;;;;;4974371;28;20204;-84
2021/01/11 09:12:02;;;;;;;21.00;14.90;;;5.60;99.90;;;;;;4992586;28;20271;-84
2021/01/11 09:14:30;;;;;;;21.27;14.75;;;5.60;99.90;;;;;;4993647;28;20197;-84
2021/01/11 09:16:59;;;;;;;26.02;16.40;;;5.50;99.90;;;;;;4981514;28;20190;-83
2021/01/11 09:19:26;;;;;;;19.45;14.52;;;5.30;99.90;;;;;;4985348;28;20190;-84
2021/01/11 09:22:05;;;;;;;18.95;14.43;;;5.30;99.90;;;;;;4977817;28;20202;-85
2021/01/11 09:24:33;;;;;;;24.33;15.55;;;5.40;99.90;;;;;;4977672;28;20211;-84
2021/01/11 09:27:00;;;;;;;20.27;14.15;;;5.50;99.90;;;;;;4994795;28;20247;-84
2021/01/11 09:29:26;;;;;;;21.00;14.15;;;5.60;99.90;;;;;;4995410;28;20198;-83
2021/01/11 09:31:53;;;;;;;21.30;13.57;;;5.60;99.90;;;;;;4982145;28;20201;-84
2021/01/11 09:34:20;;;;;;;17.58;13.88;;;5.70;99.90;;;;;;4992541;28;20200;-83
2021/01/11 09:36:46;;;;;;;19.17;13.45;;;5.80;99.90;;;;;;4996825;28;20228;-84
2021/01/11 09:39:15;;;;;;;21.10;13.75;;;5.90;99.90;;;;;;4996911;28;20208;-85
2021/01/11 09:41:44;;;;;;;20.98;14.90;;;5.80;99.90;;;;;;4996576;28;20228;-85
2021/01/11 09:44:10;;;;;;;19.17;13.73;;;5.70;99.90;;;;;;4996892;28;20200;-84
2021/01/11 09:46:41;;;;;;;26.17;18.50;;;5.90;99.90;;;;;;4993590;28;20982;-84
2021/01/11 09:49:07;;;;;;;19.65;15.27;;;5.90;99.90;;;;;;4977116;28;20209;-84
2021/01/11 09:51:34;;;;;;;21.38;14.40;;;5.70;99.90;;;;;;4977724;28;20233;-84
2021/01/11 09:54:00;;;;;;;19.35;15.05;;;5.70;99.90;;;;;;4977106;28;20669;-84
2021/01/11 09:56:26;;;;;;;19.30;14.60;;;5.70;99.90;;;;;;4976983;28;20201;-86
2021/01/11 09:58:54;;;;;;;19.77;13.98;;;5.80;99.90;;;;;;4976869;28;20653;-85
2021/01/11 10:01:20;;;;;;;18.88;12.55;;;5.80;99.90;;;;;;4977226;28;20198;-85
2021/01/11 10:03:48;;;;;;;21.60;15.90;;;5.80;99.90;;;;;;4977455;28;20197;-85
2021/01/11 10:06:14;;;;;;;19.75;14.73;;;5.80;99.90;;;;;;4976925;28;20209;-86
2021/01/11 10:08:41;;;;;;;21.50;14.80;;;5.80;99.90;;;;;;4976963;28;20193;-86
2021/01/11 10:11:13;;;;;;;19.25;14.80;;;5.80;99.90;;;;;;4976771;28;20233;-86
2021/01/11 10:13:39;;;;;;;21.00;14.07;;;6.00;99.90;;;;;;4976775;28;20205;-84
2021/01/11 10:16:07;;;;;;;21.98;14.68;;;5.80;99.90;;;;;;4976960;28;20198;-85
2021/01/11 10:18:33;;;;;;;19.40;14.63;;;5.80;99.90;;;;;;4976740;28;20653;-85
2021/01/11 10:20:59;;;;;;;21.80;14.40;;;6.00;99.90;;;;;;4976696;28;20212;-86
2021/01/11 10:23:26;;;;;;;16.75;12.00;;;5.90;99.90;;;;;;4976635;28;20198;-86
2021/01/11 10:25:52;;;;;;;14.48;10.57;;;5.90;99.90;;;;;;4976986;28;20197;-85
2021/01/11 10:28:18;;;;;;;16.67;11.50;;;5.90;99.90;;;;;;4977039;28;20193;-86
2021/01/11 10:30:45;;;;;;;14.88;11.57;;;6.00;99.90;;;;;;4996063;28;20224;-86
2021/01/11 10:33:12;;;;;;;18.88;12.93;;;6.10;99.90;;;;;;4995761;28;20192;-85
2021/01/11 10:35:39;;;;;;;18.50;13.40;;;6.20;99.90;;;;;;4995751;28;20201;-86
2021/01/11 10:38:05;;;;;;;14.40;10.63;;;6.20;99.90;;;;;;4995763;28;20201;-85
2021/01/11 10:40:32;;;;;;;16.17;11.48;;;6.10;99.90;;;;;;4995899;28;20204;-85
2021/01/11 10:42:58;;;;;;;14.77;10.63;;;6.10;99.90;;;;;;4996142;28;20228;-86
2021/01/11 10:45:24;;;;;;;13.63;9.90;;;6.10;99.90;;;;;;4995337;28;20225;-86
2021/01/11 10:47:51;;;;;;;13.48;9.73;;;6.00;99.90;;;;;;4995476;28;20213;-86
2021/01/11 10:50:18;;;;;;;13.45;10.05;;;5.90;99.90;;;;;;4995477;28;20217;-86
2021/01/11 10:52:44;;;;;;;11.85;9.80;;;5.70;99.90;;;;;;4995451;28;20201;-85
2021/01/11 10:55:12;;;;;;;18.05;12.45;;;5.70;99.90;;;;;;4995412;28;20595;-85
2021/01/11 10:57:38;;;;;;;14.77;10.70;;;5.80;99.90;;;;;;4995609;28;20207;-86
2021/01/11 11:00:10;;;;;;;14.25;9.65;;;5.90;99.90;;;;;;4995491;28;20204;-86
2021/01/11 11:02:37;;;;;;;15.75;9.45;;;5.90;99.90;;;;;;4995376;28;20208;-86
2021/01/11 11:05:04;;;;;;;14.10;10.90;;;5.80;99.90;;;;;;4995491;28;20204;-86
2021/01/11 11:07:35;;;;;;;14.65;10.10;;;5.80;99.90;;;;;;4995540;28;20208;-86
2021/01/11 11:10:04;;;;;;;18.70;12.25;;;5.90;99.90;;;;;;4995183;28;20683;-86
2021/01/11 11:12:30;;;;;;;17.83;12.30;;;5.90;99.90;;;;;;4995119;28;20213;-85
2021/01/11 11:14:58;;;;;;;17.52;11.35;;;5.90;99.90;;;;;;4995345;28;20193;-86
2021/01/11 11:17:25;;;;;;;15.50;10.88;;;5.90;99.90;;;;;;4995214;28;20711;-86
2021/01/11 11:19:51;;;;;;;11.15;8.57;;;6.00;99.90;;;;;;4994912;28;20197;-80
2021/01/11 11:22:17;;;;;;;14.23;9.90;;;5.90;99.90;;;;;;4994889;28;20600;-80
2021/01/11 11:24:44;;;;;;;23.23;18.50;;;5.80;99.90;;;;;;4994729;28;20228;-80
2021/01/11 11:27:11;;;;;;;20.55;14.40;;;5.80;99.90;;;;;;4994705;28;20204;-79
2021/01/11 11:29:37;;;;;;;14.40;10.40;;;5.80;99.90;;;;;;4984998;28;20215;-86
2021/01/11 11:32:05;;;;;;;15.48;11.00;;;5.90;99.90;;;;;;4974879;28;20236;-80
2021/01/11 11:34:31;;;;;;;13.75;9.90;;;6.00;99.90;;;;;;4977573;28;20531;-80
2021/01/11 11:36:58;;;;;;;15.40;10.77;;;6.00;99.90;;;;;;4977506;28;20533;-80
2021/01/11 11:39:24;;;;;;;22.58;12.65;;;5.80;99.90;;;;;;4994125;28;20346;-80
2021/01/11 11:41:57;;;;;;;16.20;10.52;;;5.80;99.90;;;;;;4994369;28;20236;-80
2021/01/11 11:44:23;;;;;;;11.43;9.60;;;6.00;99.90;;;;;;4994437;28;20692;-80
2021/01/11 11:46:50;;;;;;;13.00;9.30;;;6.10;99.90;;;;;;4994072;28;20256;-80
2021/01/11 11:49:16;;;;;;;16.98;9.93;;;6.00;99.90;;;;;;4994463;28;20196;-83
2021/01/11 11:51:43;;;;;;;14.63;10.00;;;6.00;99.90;;;;;;4991393;28;20315;-80
2021/01/11 11:54:10;;;;;;;14.20;10.13;;;6.20;99.90;;;;;;4994299;28;20197;-80
2021/01/11 11:56:39;;;;;;;14.05;9.55;;;6.40;99.90;;;;;;4994302;28;20197;-81
2021/01/11 11:59:06;;;;;;;10.60;8.40;;;6.60;99.90;;;;;;4994160;28;20657;-80
2021/01/11 12:01:37;;;;;;;11.85;9.10;;;6.60;99.90;;;;;;4994071;28;20695;-80
2021/01/11 12:04:04;;;;;;;10.23;9.13;;;6.60;99.90;;;;;;4994043;28;20246;-79
2021/01/11 12:06:37;;;;;;;12.07;8.98;;;6.50;99.90;;;;;;4993945;28;20569;-80
2021/01/11 12:09:04;;;;;;;12.80;9.45;;;6.50;99.90;;;;;;4994082;28;20197;-80
2021/01/11 12:11:41;;;;;;;13.50;8.48;;;6.60;99.90;;;;;;4993699;28;20318;-80
2021/01/11 12:14:09;;;;;;;11.45;8.95;;;6.50;99.90;;;;;;4993752;28;20201;-82
2021/01/11 12:16:35;;;;;;;10.30;8.48;;;6.40;99.90;;;;;;4993995;28;20201;-79
2021/01/11 12:19:01;;;;;;;13.07;9.23;;;6.30;99.90;;;;;;4993952;28;20200;-80
2021/01/11 12:21:29;;;;;;;10.57;8.35;;;6.40;99.90;;;;;;4988294;28;20186;-80
2021/01/11 12:23:55;;;;;;;8.93;8.00;;;6.30;99.90;;;;;;4993965;28;20201;-80
2021/01/11 12:26:22;;;;;;;11.43;7.80;;;6.50;99.90;;;;;;4993421;28;20192;-80
2021/01/11 12:28:48;;;;;;;10.82;6.78;;;6.50;99.90;;;;;;4974427;28;20654;-80
2021/01/11 12:31:15;;;;;;;10.70;7.80;;;6.50;99.90;;;;;;4974341;28;20309;-80
2021/01/11 12:33:42;;;;;;;9.50;7.95;;;6.60;99.90;;;;;;4974281;28;20653;-80
2021/01/11 12:36:08;;;;;;;8.00;7.00;;;6.60;99.90;;;;;;4979330;28;20193;-80
2021/01/11 12:38:34;;;;;;;11.75;7.47;;;6.50;99.90;;;;;;4993769;28;20205;-80
2021/01/11 12:41:01;;;;;;;9.02;7.70;;;6.50;99.90;;;;;;4993665;28;20217;-80
2021/01/11 12:43:29;;;;;;;9.45;7.88;;;6.50;99.90;;;;;;4993923;28;20203;-84
2021/01/11 12:45:55;;;;;;;12.38;8.10;;;6.70;99.90;;;;;;4993543;28;20271;-80